createdAt,value
2023-03-15T00:00:32.364Z,987.12
2023-03-15T00:01:32.337Z,987.07
2023-03-15T00:03:49.773Z,987.11
2023-03-15T00:04:49.737Z,987.24
2023-03-15T00:05:49.742Z,987.11
2023-03-15T00:06:49.711Z,987.09
2023-03-15T00:07:49.705Z,987.03
2023-03-15T00:08:49.697Z,987.12
2023-03-15T00:09:49.684Z,987.15
2023-03-15T00:10:49.682Z,987.08
2023-03-15T00:11:49.792Z,987.08
2023-03-15T00:12:49.648Z,987.13
2023-03-15T00:13:49.640Z,987.16
2023-03-15T00:14:49.625Z,987.19
2023-03-15T00:15:49.690Z,987.14
2023-03-15T00:16:49.760Z,987.25
2023-03-15T00:17:49.598Z,987.17
2023-03-15T00:18:49.582Z,987.24
2023-03-15T00:19:49.583Z,987.25
2023-03-15T00:20:49.577Z,987.28
2023-03-15T00:21:49.558Z,987.22
2023-03-15T00:22:49.553Z,987.24
2023-03-15T00:23:49.537Z,987.35
2023-03-15T00:24:49.522Z,987.32
2023-03-15T00:25:49.530Z,987.42
2023-03-15T00:26:49.497Z,987.33
2023-03-15T00:27:49.493Z,987.32
2023-03-15T00:28:49.478Z,987.33
2023-03-15T00:29:49.472Z,987.40
2023-03-15T00:30:49.520Z,987.30
2023-03-15T00:31:49.453Z,987.38
2023-03-15T00:32:49.509Z,987.38
2023-03-15T00:33:49.430Z,987.40
2023-03-15T00:34:49.419Z,987.37
2023-03-15T00:35:49.440Z,987.49
2023-03-15T00:36:49.396Z,987.46
2023-03-15T00:37:49.393Z,987.43
2023-03-15T00:38:49.379Z,987.47
2023-03-15T00:39:49.365Z,987.45
2023-03-15T00:40:49.359Z,987.38
2023-03-15T00:41:49.353Z,987.36
2023-03-15T00:42:49.334Z,987.43
2023-03-15T00:43:49.329Z,987.47
2023-03-15T00:44:49.312Z,987.42
2023-03-15T00:45:49.318Z,987.41
2023-03-15T00:46:49.366Z,987.49
2023-03-15T00:47:49.286Z,987.59
2023-03-15T00:48:49.280Z,987.49
2023-03-15T00:49:49.265Z,987.57
2023-03-15T00:50:49.278Z,987.46
2023-03-15T00:51:49.242Z,987.44
2023-03-15T00:52:49.229Z,987.49
2023-03-15T00:53:49.223Z,987.51
2023-03-15T00:54:49.211Z,987.48
2023-03-15T00:55:49.215Z,987.52
2023-03-15T00:56:49.191Z,987.51
2023-03-15T00:57:49.209Z,987.53
2023-03-15T00:58:49.170Z,987.64
2023-03-15T00:59:49.162Z,987.58
2023-03-15T01:00:49.158Z,987.68
2023-03-15T01:01:49.172Z,987.56
2023-03-15T01:02:49.173Z,987.61
2023-03-15T01:03:49.151Z,987.56
2023-03-15T01:04:49.104Z,987.57
2023-03-15T01:05:49.103Z,987.52
2023-03-15T01:06:49.079Z,987.66
2023-03-15T01:07:49.080Z,987.55
2023-03-15T01:08:49.060Z,987.64
2023-03-15T01:09:49.057Z,987.57
2023-03-15T01:10:49.047Z,987.64
2023-03-15T01:11:49.031Z,987.65
2023-03-15T01:12:49.020Z,987.58
2023-03-15T01:13:49.014Z,987.73
2023-03-15T01:14:48.998Z,987.66
2023-03-15T01:15:49.010Z,987.68
2023-03-15T01:16:48.977Z,987.68
2023-03-15T01:17:48.971Z,987.70
2023-03-15T01:18:48.962Z,987.65
2023-03-15T01:19:48.954Z,987.75
2023-03-15T01:20:48.946Z,987.65
2023-03-15T01:21:48.931Z,987.72
2023-03-15T01:22:48.925Z,987.65
2023-03-15T01:23:48.926Z,987.67
2023-03-15T01:24:48.913Z,987.63
2023-03-15T01:25:48.901Z,987.72
2023-03-15T01:26:48.873Z,987.63
2023-03-15T01:27:48.865Z,987.64
2023-03-15T01:28:48.854Z,987.82
2023-03-15T01:29:48.849Z,987.74
2023-03-15T01:30:49.863Z,987.75
2023-03-15T01:31:48.875Z,987.68
2023-03-15T01:32:48.839Z,987.80
2023-03-15T01:33:48.807Z,987.82
2023-03-15T01:34:48.790Z,987.74
2023-03-15T01:35:48.874Z,987.73
2023-03-15T01:36:48.771Z,987.78
2023-03-15T01:37:48.765Z,987.83
2023-03-15T01:38:48.755Z,987.72
2023-03-15T01:39:48.759Z,987.72
2023-03-15T01:40:48.747Z,987.77
2023-03-15T01:41:48.730Z,987.74
2023-03-15T01:42:48.714Z,987.78
2023-03-15T01:43:48.717Z,987.78
2023-03-15T01:44:48.691Z,987.78
2023-03-15T01:45:48.699Z,987.80
2023-03-15T01:46:48.680Z,987.74
2023-03-15T01:47:48.662Z,987.76
2023-03-15T01:48:48.652Z,987.81
2023-03-15T01:49:48.641Z,987.78
2023-03-15T01:50:48.639Z,987.78
2023-03-15T01:51:48.624Z,987.76
2023-03-15T01:52:48.606Z,987.88
2023-03-15T01:53:48.601Z,987.80
2023-03-15T01:54:48.593Z,987.79
2023-03-15T01:55:48.593Z,987.81
2023-03-15T01:56:48.569Z,987.85
2023-03-15T01:57:48.558Z,987.80
2023-03-15T01:58:48.545Z,987.83
2023-03-15T01:59:48.540Z,987.82
2023-03-15T02:00:48.587Z,987.88
2023-03-15T02:01:48.541Z,987.93
2023-03-15T02:02:48.504Z,987.90
2023-03-15T02:03:48.494Z,987.95
2023-03-15T02:04:48.495Z,987.96
2023-03-15T02:05:48.489Z,988.02
2023-03-15T02:06:48.468Z,987.91
2023-03-15T02:07:48.462Z,987.95
2023-03-15T02:08:48.443Z,987.89
2023-03-15T02:09:48.440Z,987.87
2023-03-15T02:10:48.456Z,987.91
2023-03-15T02:11:48.419Z,988.00
2023-03-15T02:12:48.402Z,987.98
2023-03-15T02:13:48.396Z,988.09
2023-03-15T02:14:48.396Z,988.07
2023-03-15T02:15:48.380Z,987.99
2023-03-15T02:16:48.429Z,987.97
2023-03-15T02:17:48.357Z,988.15
2023-03-15T02:18:48.347Z,988.06
2023-03-15T02:19:48.344Z,988.12
2023-03-15T02:20:48.327Z,988.14
2023-03-15T02:21:48.322Z,988.17
2023-03-15T02:22:48.301Z,988.22
2023-03-15T02:23:48.292Z,988.16
2023-03-15T02:24:48.284Z,988.20
2023-03-15T02:25:48.271Z,988.20
2023-03-15T02:26:48.269Z,988.12
2023-03-15T02:27:48.248Z,988.15
2023-03-15T02:28:48.236Z,988.27
2023-03-15T02:29:48.229Z,988.23
2023-03-15T02:30:48.218Z,988.17
2023-03-15T02:31:48.248Z,988.16
2023-03-15T02:32:48.239Z,988.27
2023-03-15T02:33:48.188Z,988.16
2023-03-15T02:34:48.179Z,988.16
2023-03-15T02:35:48.181Z,988.18
2023-03-15T02:36:48.167Z,988.14
2023-03-15T02:37:48.148Z,988.12
2023-03-15T02:38:48.133Z,988.17
2023-03-15T02:39:48.135Z,988.09
2023-03-15T02:40:48.116Z,988.10
2023-03-15T02:41:48.124Z,988.16
2023-03-15T02:42:48.101Z,988.08
2023-03-15T02:43:48.089Z,988.11
2023-03-15T02:44:48.074Z,988.16
2023-03-15T02:45:48.098Z,988.14
2023-03-15T02:46:48.069Z,988.15
2023-03-15T02:47:48.048Z,988.16
2023-03-15T02:48:48.036Z,988.15
2023-03-15T02:49:48.025Z,988.20
2023-03-15T02:50:48.014Z,988.19
2023-03-15T02:51:48.019Z,988.19
2023-03-15T02:52:47.996Z,988.21
2023-03-15T02:53:47.986Z,988.28
2023-03-15T02:54:47.976Z,988.33
2023-03-15T02:55:54.152Z,988.28
2023-03-15T02:56:47.963Z,988.30
2023-03-15T02:57:47.944Z,988.25
2023-03-15T02:58:47.934Z,988.26
2023-03-15T02:59:47.925Z,988.22
2023-03-15T03:00:47.932Z,988.22
2023-03-15T03:01:47.915Z,988.21
2023-03-15T03:02:47.976Z,988.16
2023-03-15T03:03:47.879Z,988.22
2023-03-15T03:04:47.874Z,988.25
2023-03-15T03:05:47.865Z,988.23
2023-03-15T03:06:47.858Z,988.24
2023-03-15T03:07:47.840Z,988.22
2023-03-15T03:08:47.845Z,988.28
2023-03-15T03:09:47.823Z,988.23
2023-03-15T03:10:47.816Z,988.24
2023-03-15T03:11:47.814Z,988.29
2023-03-15T03:12:47.792Z,988.25
2023-03-15T03:13:47.774Z,988.25
2023-03-15T03:14:47.771Z,988.25
2023-03-15T03:15:47.761Z,988.35
2023-03-15T03:16:47.783Z,988.31
2023-03-15T03:17:47.734Z,988.34
2023-03-15T03:18:47.729Z,988.35
2023-03-15T03:19:47.717Z,988.39
2023-03-15T03:20:47.705Z,988.49
2023-03-15T03:21:47.703Z,988.46
2023-03-15T03:22:47.698Z,988.41
2023-03-15T03:23:47.672Z,988.51
2023-03-15T03:24:47.665Z,988.56
2023-03-15T03:25:47.646Z,988.57
2023-03-15T03:26:47.651Z,988.51
2023-03-15T03:27:47.635Z,988.61
2023-03-15T03:28:47.632Z,988.51
2023-03-15T03:29:47.604Z,988.58
2023-03-15T03:30:47.673Z,988.60
2023-03-15T03:31:47.599Z,988.61
2023-03-15T03:32:47.618Z,988.66
2023-03-15T03:33:47.572Z,988.68
2023-03-15T03:34:47.560Z,988.63
2023-03-15T03:35:47.598Z,988.61
2023-03-15T03:36:47.539Z,988.58
2023-03-15T03:37:47.544Z,988.67
2023-03-15T03:38:47.525Z,988.54
2023-03-15T03:39:47.504Z,988.58
2023-03-15T03:40:47.496Z,988.60
2023-03-15T03:41:47.489Z,988.63
2023-03-15T03:42:47.509Z,988.69
2023-03-15T03:43:47.464Z,988.72
2023-03-15T03:44:47.462Z,988.70
2023-03-15T03:45:47.473Z,988.71
2023-03-15T03:46:47.431Z,988.76
2023-03-15T03:47:47.434Z,988.67
2023-03-15T03:48:47.409Z,988.74
2023-03-15T03:49:47.394Z,988.79
2023-03-15T03:50:47.391Z,988.84
2023-03-15T03:51:47.382Z,988.88
2023-03-15T03:52:47.378Z,988.80
2023-03-15T03:53:47.353Z,988.89
2023-03-15T03:54:47.349Z,988.98
2023-03-15T03:55:47.333Z,988.85
2023-03-15T03:56:47.326Z,988.91
2023-03-15T03:57:47.328Z,988.96
2023-03-15T03:58:47.300Z,988.93
2023-03-15T03:59:47.291Z,988.98
2023-03-15T04:00:47.287Z,988.95
2023-03-15T04:01:47.264Z,988.92
2023-03-15T04:02:47.343Z,988.86
2023-03-15T04:03:47.252Z,988.85
2023-03-15T04:04:47.286Z,988.88
2023-03-15T04:05:47.225Z,988.87
2023-03-15T04:06:47.212Z,988.79
2023-03-15T04:07:47.218Z,988.85
2023-03-15T04:08:47.216Z,988.91
2023-03-15T04:09:47.186Z,988.88
2023-03-15T04:10:47.172Z,988.94
2023-03-15T04:11:47.161Z,988.95
2023-03-15T04:12:47.170Z,988.95
2023-03-15T04:13:47.147Z,989.00
2023-03-15T04:14:47.138Z,988.95
2023-03-15T04:15:47.157Z,989.01
2023-03-15T04:16:47.124Z,989.14
2023-03-15T04:17:47.105Z,989.02
2023-03-15T04:18:47.092Z,989.00
2023-03-15T04:19:47.210Z,989.13
2023-03-15T04:20:47.082Z,989.05
2023-03-15T04:21:47.078Z,989.06
2023-03-15T04:22:47.063Z,989.10
2023-03-15T04:23:47.036Z,989.14
2023-03-15T04:24:47.033Z,989.07
2023-03-15T04:25:47.017Z,989.09
2023-03-15T04:26:47.012Z,989.20
2023-03-15T04:27:47.008Z,989.12
2023-03-15T04:28:46.998Z,989.08
2023-03-15T04:29:46.979Z,989.20
2023-03-15T04:30:46.971Z,989.07
2023-03-15T04:31:46.968Z,989.14
2023-03-15T04:32:46.983Z,989.22
2023-03-15T04:33:46.935Z,989.26
2023-03-15T04:34:46.933Z,989.18
2023-03-15T04:35:46.998Z,989.20
2023-03-15T04:36:46.906Z,989.25
2023-03-15T04:37:46.927Z,989.28
2023-03-15T04:38:46.895Z,989.35
2023-03-15T04:39:46.878Z,989.29
2023-03-15T04:40:46.872Z,989.37
2023-03-15T04:41:46.856Z,989.30
2023-03-15T04:42:46.860Z,989.35
2023-03-15T04:43:46.837Z,989.37
2023-03-15T04:44:46.832Z,989.35
2023-03-15T04:45:46.816Z,989.44
2023-03-15T04:46:46.930Z,989.29
2023-03-15T04:47:46.868Z,989.38
2023-03-15T04:48:46.784Z,989.38
2023-03-15T04:49:46.808Z,989.36
2023-03-15T04:50:46.765Z,989.38
2023-03-15T04:51:46.749Z,989.38
2023-03-15T04:52:46.758Z,989.38
2023-03-15T04:53:46.739Z,989.43
2023-03-15T04:54:46.726Z,989.45
2023-03-15T04:55:46.712Z,989.48
2023-03-15T04:56:46.708Z,989.45
2023-03-15T04:57:46.700Z,989.47
2023-03-15T04:58:46.684Z,989.54
2023-03-15T04:59:46.674Z,989.49
2023-03-15T05:00:46.686Z,989.50
2023-03-15T05:01:46.665Z,989.58
2023-03-15T05:02:46.655Z,989.48
2023-03-15T05:03:46.634Z,989.57
2023-03-15T05:04:46.623Z,989.58
2023-03-15T05:05:46.610Z,989.61
2023-03-15T05:06:46.599Z,989.59
2023-03-15T05:07:46.600Z,989.61
2023-03-15T05:08:46.585Z,989.56
2023-03-15T05:09:46.564Z,989.62
2023-03-15T05:10:46.562Z,989.61
2023-03-15T05:11:46.556Z,989.66
2023-03-15T05:12:46.550Z,989.75
2023-03-15T05:13:46.520Z,989.72
2023-03-15T05:14:46.560Z,989.76
2023-03-15T05:15:46.504Z,989.70
2023-03-15T05:16:46.493Z,989.70
2023-03-15T05:17:46.572Z,989.76
2023-03-15T05:18:46.473Z,989.71
2023-03-15T05:19:46.466Z,989.78
2023-03-15T05:20:46.458Z,989.86
2023-03-15T05:21:46.444Z,989.78
2023-03-15T05:22:46.439Z,989.77
2023-03-15T05:23:46.430Z,989.77
2023-03-15T05:24:46.414Z,989.83
2023-03-15T05:25:46.396Z,989.83
2023-03-15T05:26:46.395Z,989.86
2023-03-15T05:27:46.471Z,989.88
2023-03-15T05:28:46.369Z,989.84
2023-03-15T05:29:46.355Z,989.89
2023-03-15T05:30:46.350Z,989.90
2023-03-15T05:31:46.362Z,989.84
2023-03-15T05:32:46.392Z,989.89
2023-03-15T05:33:46.313Z,989.86
2023-03-15T05:34:46.304Z,989.98
2023-03-15T05:35:46.393Z,989.93
2023-03-15T05:36:46.287Z,989.99
2023-03-15T05:37:46.293Z,989.95
2023-03-15T05:38:46.262Z,989.96
2023-03-15T05:39:46.254Z,989.98
2023-03-15T05:40:46.307Z,989.99
2023-03-15T05:41:46.231Z,990.02
2023-03-15T05:42:46.228Z,989.98
2023-03-15T05:43:46.207Z,990.06
2023-03-15T05:44:46.227Z,990.02
2023-03-15T05:45:46.239Z,990.06
2023-03-15T05:46:46.201Z,990.09
2023-03-15T05:47:46.180Z,990.08
2023-03-15T05:48:46.158Z,990.09
2023-03-15T05:49:46.145Z,990.13
2023-03-15T05:50:46.137Z,990.04
2023-03-15T05:51:46.123Z,990.12
2023-03-15T05:52:46.127Z,990.15
2023-03-15T05:53:46.473Z,990.13
2023-03-15T05:54:46.097Z,990.14
2023-03-15T05:55:46.083Z,990.12
2023-03-15T05:56:46.078Z,990.15
2023-03-15T05:57:46.064Z,990.10
2023-03-15T05:58:46.053Z,990.17
2023-03-15T05:59:46.037Z,990.09
2023-03-15T06:00:46.031Z,990.21
2023-03-15T06:01:46.018Z,990.19
2023-03-15T06:02:46.022Z,990.20
2023-03-15T06:03:46.075Z,990.22
2023-03-15T06:04:45.983Z,990.29
2023-03-15T06:05:45.984Z,990.24
2023-03-15T06:06:45.975Z,990.27
2023-03-15T06:07:45.963Z,990.27
2023-03-15T06:08:45.943Z,990.17
2023-03-15T06:09:45.930Z,990.34
2023-03-15T06:10:45.921Z,990.21
2023-03-15T06:11:45.906Z,990.31
2023-03-15T06:12:45.908Z,990.29
2023-03-15T06:13:45.898Z,990.24
2023-03-15T06:14:45.879Z,990.34
2023-03-15T06:15:45.866Z,990.37
2023-03-15T06:16:45.893Z,990.27
2023-03-15T06:17:45.845Z,990.33
2023-03-15T06:18:45.848Z,990.28
2023-03-15T06:19:45.821Z,990.27
2023-03-15T06:20:45.812Z,990.36
2023-03-15T06:21:45.823Z,990.29
2023-03-15T06:22:45.792Z,990.29
2023-03-15T06:23:45.793Z,990.28
2023-03-15T06:24:45.771Z,990.32
2023-03-15T06:25:45.756Z,990.33
2023-03-15T06:26:45.750Z,990.38
2023-03-15T06:27:45.743Z,990.35
2023-03-15T06:28:45.740Z,990.52
2023-03-15T06:29:45.719Z,990.47
2023-03-15T06:30:45.739Z,990.49
2023-03-15T06:31:45.705Z,990.52
2023-03-15T06:32:45.704Z,990.50
2023-03-15T06:33:45.689Z,990.52
2023-03-15T06:34:45.674Z,990.61
2023-03-15T06:35:45.683Z,990.54
2023-03-15T06:36:45.651Z,990.57
2023-03-15T06:37:45.636Z,990.57
2023-03-15T06:38:45.650Z,990.60
2023-03-15T06:39:45.617Z,990.56
2023-03-15T06:40:45.613Z,990.60
2023-03-15T06:41:45.595Z,990.59
2023-03-15T06:42:45.586Z,990.55
2023-03-15T06:43:45.585Z,990.62
2023-03-15T06:44:45.575Z,990.67
2023-03-15T06:45:45.598Z,990.63
2023-03-15T06:46:45.546Z,990.74
2023-03-15T06:47:45.534Z,990.70
2023-03-15T06:48:45.535Z,990.70
2023-03-15T06:49:45.509Z,990.72
2023-03-15T06:50:47.696Z,990.71
2023-03-15T06:51:45.514Z,990.80
2023-03-15T06:52:45.482Z,990.82
2023-03-15T06:53:45.480Z,990.75
2023-03-15T06:54:45.482Z,990.81
2023-03-15T06:55:45.470Z,990.89
2023-03-15T06:56:45.454Z,990.78
2023-03-15T06:57:45.432Z,990.80
2023-03-15T06:58:45.470Z,990.76
2023-03-15T06:59:45.413Z,990.78
2023-03-15T07:00:45.396Z,990.80
2023-03-15T07:01:45.422Z,990.84
2023-03-15T07:02:45.435Z,990.88
2023-03-15T07:03:45.389Z,990.82
2023-03-15T07:04:45.368Z,990.84
2023-03-15T07:05:45.344Z,990.83
2023-03-15T07:06:45.338Z,990.83
2023-03-15T07:07:45.329Z,990.85
2023-03-15T07:08:45.328Z,990.87
2023-03-15T07:09:45.302Z,990.82
2023-03-15T07:10:45.318Z,990.85
2023-03-15T07:11:45.288Z,990.84
2023-03-15T07:12:45.287Z,990.87
2023-03-15T07:13:45.300Z,990.86
2023-03-15T07:14:45.256Z,990.96
2023-03-15T07:15:45.275Z,990.95
2023-03-15T07:16:45.238Z,990.92
2023-03-15T07:17:45.223Z,990.95
2023-03-15T07:18:45.233Z,991.01
2023-03-15T07:19:55.833Z,990.94
2023-03-15T07:20:46.200Z,990.97
2023-03-15T07:21:45.183Z,990.97
2023-03-15T07:22:45.180Z,991.01
2023-03-15T07:23:45.179Z,991.01
2023-03-15T07:24:45.152Z,990.94
2023-03-15T07:25:54.845Z,991.01
2023-03-15T07:26:46.167Z,991.12
2023-03-15T07:27:45.124Z,991.01
2023-03-15T07:28:45.119Z,991.03
2023-03-15T07:29:45.118Z,991.06
2023-03-15T07:30:45.567Z,991.01
2023-03-15T07:31:45.087Z,991.13
2023-03-15T07:32:45.190Z,991.04
2023-03-15T07:33:45.078Z,991.11
2023-03-15T07:34:45.054Z,991.03
2023-03-15T07:35:45.100Z,991.04
2023-03-15T07:36:45.026Z,991.08
2023-03-15T07:37:45.085Z,991.11
2023-03-15T07:38:45.019Z,991.09
2023-03-15T07:39:44.997Z,991.17
2023-03-15T07:40:44.985Z,991.14
2023-03-15T07:41:46.895Z,991.13
2023-03-15T07:42:44.960Z,991.19
2023-03-15T07:43:44.967Z,991.20
2023-03-15T07:44:44.944Z,991.24
2023-03-15T07:45:44.927Z,991.23
2023-03-15T07:46:44.953Z,991.27
2023-03-15T07:47:44.908Z,991.27
2023-03-15T07:48:44.940Z,991.28
2023-03-15T07:49:44.889Z,991.23
2023-03-15T07:50:44.933Z,991.29
2023-03-15T07:51:44.863Z,991.27
2023-03-15T07:52:44.857Z,991.27
2023-03-15T07:53:44.871Z,991.25
2023-03-15T07:54:44.863Z,991.29
2023-03-15T07:55:44.839Z,991.30
2023-03-15T07:56:44.811Z,991.34
2023-03-15T07:57:44.803Z,991.39
2023-03-15T07:58:44.796Z,991.46
2023-03-15T07:59:44.820Z,991.34
2023-03-15T08:00:44.783Z,991.40
2023-03-15T08:01:44.812Z,991.37
2023-03-15T08:02:44.814Z,991.47
2023-03-15T08:03:44.755Z,991.46
2023-03-15T08:04:44.727Z,991.42
2023-03-15T08:05:44.722Z,991.35
2023-03-15T08:06:44.704Z,991.38
2023-03-15T08:07:44.709Z,991.44
2023-03-15T08:08:44.700Z,991.45
2023-03-15T08:09:44.687Z,991.35
2023-03-15T08:10:44.666Z,991.44
2023-03-15T08:11:45.715Z,991.51
2023-03-15T08:12:44.698Z,991.52
2023-03-15T08:13:44.670Z,991.43
2023-03-15T08:14:44.630Z,991.42
2023-03-15T08:15:44.626Z,991.43
2023-03-15T08:16:44.707Z,991.40
2023-03-15T08:17:44.617Z,991.49
2023-03-15T08:18:44.593Z,991.42
2023-03-15T08:19:44.584Z,991.65
2023-03-15T08:20:44.569Z,991.53
2023-03-15T08:21:44.550Z,991.49
2023-03-15T08:22:44.596Z,991.57
2023-03-15T08:23:44.547Z,991.51
2023-03-15T08:27:18.129Z,991.64
2023-03-15T08:28:18.056Z,991.56
2023-03-15T08:29:18.056Z,991.55
2023-03-15T08:30:18.026Z,991.52
2023-03-15T08:31:18.041Z,991.47
2023-03-15T08:32:18.005Z,991.53
2023-03-15T08:34:58.105Z,991.60
2023-03-15T08:35:44.137Z,991.68
2023-03-15T08:36:44.282Z,991.52
2023-03-15T08:37:43.934Z,991.56
2023-03-15T08:38:43.933Z,991.66
2023-03-15T08:39:43.952Z,991.59
2023-03-15T08:40:43.898Z,991.58
2023-03-15T08:41:43.895Z,991.56
2023-03-15T08:42:43.875Z,991.65
2023-03-15T08:43:43.886Z,991.74
2023-03-15T08:44:43.892Z,991.71
2023-03-15T08:46:00.315Z,991.72
2023-03-15T08:46:44.942Z,991.80
2023-03-15T08:47:43.839Z,991.83
2023-03-15T08:48:43.827Z,991.85
2023-03-15T08:49:43.857Z,991.93
2023-03-15T08:50:43.791Z,991.85
2023-03-15T08:51:43.779Z,991.93
2023-03-15T08:52:43.774Z,991.94
2023-03-15T08:53:43.775Z,991.96
2023-03-15T08:54:43.746Z,992.06
2023-03-15T08:55:43.742Z,992.09
2023-03-15T08:56:43.723Z,992.03
2023-03-15T08:57:43.714Z,992.04
2023-03-15T08:58:43.714Z,992.10
2023-03-15T08:59:43.801Z,992.20
2023-03-15T09:00:43.698Z,992.11
2023-03-15T09:01:43.678Z,992.18
2023-03-15T09:02:43.726Z,992.24
2023-03-15T09:03:43.657Z,992.22
2023-03-15T09:04:43.733Z,992.25
2023-03-15T09:05:43.635Z,992.22
2023-03-15T09:06:43.624Z,992.21
2023-03-15T09:07:43.608Z,992.24
2023-03-15T09:08:43.607Z,992.14
2023-03-15T09:09:43.590Z,992.27
2023-03-15T09:10:43.575Z,992.24
2023-03-15T09:11:43.570Z,992.31
2023-03-15T09:12:43.556Z,992.24
2023-03-15T09:13:43.562Z,992.31
2023-03-15T09:14:43.530Z,992.33
2023-03-15T09:15:43.673Z,992.34
2023-03-15T09:16:44.206Z,992.34
2023-03-15T09:17:43.501Z,992.40
2023-03-15T09:18:43.492Z,992.36
2023-03-15T09:19:43.492Z,992.38
2023-03-15T09:20:43.471Z,992.49
2023-03-15T09:21:44.899Z,992.43
2023-03-15T09:22:43.464Z,992.47
2023-03-15T09:23:45.066Z,992.46
2023-03-15T09:24:43.444Z,992.51
2023-03-15T09:25:43.430Z,992.65
2023-03-15T09:26:43.419Z,992.65
2023-03-15T09:27:43.401Z,992.53
2023-03-15T09:28:43.386Z,992.52
2023-03-15T09:29:43.395Z,992.54
2023-03-15T09:30:43.442Z,992.52
2023-03-15T09:31:43.366Z,992.58
2023-03-15T09:32:43.479Z,992.56
2023-03-15T09:33:43.338Z,992.67
2023-03-15T09:34:43.342Z,992.55
2023-03-15T09:35:43.337Z,992.65
2023-03-15T09:36:43.300Z,992.58
2023-03-15T09:37:43.298Z,992.67
2023-03-15T09:38:43.288Z,992.70
2023-03-15T09:39:43.293Z,992.65
2023-03-15T09:40:43.501Z,992.63
2023-03-15T09:41:43.267Z,992.77
2023-03-15T09:42:43.243Z,992.63
2023-03-15T09:43:43.643Z,992.68
2023-03-15T09:51:53.124Z,992.75
2023-03-15T09:52:53.117Z,992.74
2023-03-15T09:53:57.298Z,992.69
2023-03-15T09:54:53.189Z,992.66
2023-03-15T09:55:53.118Z,992.79
2023-03-15T09:59:50.175Z,992.72
2023-03-15T10:00:45.707Z,992.86
2023-03-15T10:01:45.219Z,992.81
2023-03-15T10:02:45.034Z,992.81
2023-03-15T10:03:45.053Z,992.91
2023-03-15T10:04:44.993Z,992.81
2023-03-15T10:05:44.971Z,992.81
2023-03-15T10:06:44.948Z,992.83
2023-03-15T10:07:44.930Z,992.85
2023-03-15T10:08:44.917Z,992.91
2023-03-15T10:09:44.926Z,992.82
2023-03-15T10:10:44.946Z,992.83
2023-03-15T10:14:37.984Z,992.67
2023-03-15T10:15:36.834Z,992.65
2023-03-15T10:16:36.822Z,992.70
2023-03-15T10:17:36.816Z,992.70
2023-03-15T10:18:36.803Z,992.66
2023-03-15T10:19:36.804Z,992.65
2023-03-15T10:20:36.783Z,992.68
2023-03-15T10:21:36.777Z,992.58
2023-03-15T10:22:37.507Z,992.59
2023-03-15T10:23:36.752Z,992.61
2023-03-15T10:24:36.744Z,992.58
2023-03-15T10:25:36.735Z,992.60
2023-03-15T10:26:36.719Z,992.60
2023-03-15T10:27:36.707Z,992.65
2023-03-15T10:28:37.239Z,992.62
2023-03-15T10:29:44.483Z,992.67
2023-03-15T10:30:36.891Z,992.63
2023-03-15T10:31:44.683Z,992.56
2023-03-15T10:32:37.692Z,992.70
2023-03-15T10:33:36.642Z,992.70
2023-03-15T10:35:05.531Z,992.62
2023-03-15T10:35:36.656Z,992.75
2023-03-15T10:36:36.627Z,992.71
2023-03-15T10:37:36.601Z,992.72
2023-03-15T10:38:36.629Z,992.62
2023-03-15T10:39:36.603Z,992.73
2023-03-15T10:40:36.581Z,992.69
2023-03-15T10:41:36.556Z,992.71
2023-03-15T10:42:36.824Z,992.70
2023-03-15T10:43:36.531Z,992.66
2023-03-15T10:44:36.525Z,992.77
2023-03-15T10:45:36.524Z,992.80
2023-03-15T10:46:36.526Z,992.85
2023-03-15T10:47:36.822Z,992.80
2023-03-15T10:48:36.483Z,992.72
2023-03-15T10:49:36.486Z,992.78
2023-03-15T10:50:36.469Z,992.82
2023-03-15T10:51:36.450Z,992.76
2023-03-15T10:52:36.441Z,992.80
2023-03-15T10:53:36.434Z,992.71
2023-03-15T10:54:36.417Z,992.74
2023-03-15T10:55:36.419Z,992.79
2023-03-15T10:56:36.405Z,992.79
2023-03-15T10:57:36.406Z,992.72
2023-03-15T10:58:36.384Z,992.70
2023-03-15T10:59:36.386Z,992.63
2023-03-15T11:00:36.399Z,992.59
2023-03-15T11:01:36.381Z,992.67
2023-03-15T11:02:36.358Z,992.70
2023-03-15T11:03:36.324Z,992.74
2023-03-15T11:04:36.315Z,992.75
2023-03-15T11:05:36.318Z,992.73
2023-03-15T11:06:36.287Z,992.80
2023-03-15T11:07:36.289Z,992.69
2023-03-15T11:08:36.268Z,992.73
2023-03-15T11:09:36.321Z,992.81
2023-03-15T11:10:36.285Z,992.81
2023-03-15T11:11:36.244Z,992.72
2023-03-15T11:12:36.228Z,992.71
2023-03-15T11:13:36.266Z,992.70
2023-03-15T11:14:36.215Z,992.66
2023-03-15T11:15:36.216Z,992.65
2023-03-15T11:16:36.328Z,992.69
2023-03-15T11:17:36.997Z,992.72
2023-03-15T11:18:36.168Z,992.58
2023-03-15T11:19:36.272Z,992.68
2023-03-15T11:20:36.161Z,992.68
2023-03-15T11:21:36.146Z,992.64
2023-03-15T11:22:36.925Z,992.60
2023-03-15T11:23:36.124Z,992.56
2023-03-15T11:24:36.142Z,992.56
2023-03-15T11:25:36.200Z,992.71
2023-03-15T11:29:34.700Z,992.76
2023-03-15T11:30:28.045Z,992.83
2023-03-15T11:31:28.061Z,992.84
2023-03-15T11:32:28.080Z,992.80
2023-03-15T11:33:28.022Z,992.85
2023-03-15T11:34:28.000Z,992.78
2023-03-15T11:35:28.007Z,992.94
2023-03-15T11:36:27.991Z,992.93
2023-03-15T11:37:27.973Z,992.81
2023-03-15T11:38:27.969Z,992.87
2023-03-15T11:39:27.959Z,992.88
2023-03-15T11:40:27.944Z,992.95
2023-03-15T11:41:28.183Z,992.88
2023-03-15T11:43:03.684Z,992.91
2023-03-15T11:43:27.910Z,992.84
2023-03-15T11:44:27.901Z,992.87
2023-03-15T11:45:27.951Z,992.86
2023-03-15T11:46:27.895Z,992.84
2023-03-15T11:47:27.867Z,992.85
2023-03-15T11:48:27.878Z,992.88
2023-03-15T11:49:34.689Z,992.88
2023-03-15T11:50:27.847Z,992.93
2023-03-15T11:51:28.055Z,992.90
2023-03-15T11:52:27.899Z,992.84
2023-03-15T11:53:27.857Z,992.85
2023-03-15T11:54:27.795Z,992.87
2023-03-15T11:55:27.786Z,992.93
2023-03-15T11:56:27.792Z,992.83
2023-03-15T11:57:27.769Z,992.93
2023-03-15T11:58:27.754Z,992.88
2023-03-15T11:59:27.740Z,992.84
2023-03-15T12:00:27.735Z,992.86
2023-03-15T12:01:27.741Z,992.89
2023-03-15T12:02:27.778Z,992.94
2023-03-15T12:03:27.810Z,992.91
2023-03-15T12:04:27.693Z,992.94
2023-03-15T12:05:27.681Z,992.87
2023-03-15T12:06:27.678Z,993.02
2023-03-15T12:07:27.665Z,992.98
2023-03-15T12:08:27.645Z,992.96
2023-03-15T12:09:27.640Z,992.92
2023-03-15T12:10:27.625Z,992.92
2023-03-15T12:11:27.632Z,992.93
2023-03-15T12:12:27.606Z,992.93
2023-03-15T12:13:27.589Z,992.89
2023-03-15T12:14:27.582Z,992.91
2023-03-15T12:15:27.629Z,992.89
2023-03-15T12:16:27.618Z,992.90
2023-03-15T12:17:27.545Z,992.94
2023-03-15T12:18:27.536Z,992.90
2023-03-15T12:19:27.522Z,992.93
2023-03-15T12:20:27.510Z,992.90
2023-03-15T12:21:28.646Z,992.83
2023-03-15T12:22:28.614Z,992.92
2023-03-15T12:23:28.606Z,992.93
2023-03-15T12:24:28.609Z,992.94
2023-03-15T12:25:28.583Z,993.02
2023-03-15T12:26:28.584Z,992.93
2023-03-15T12:27:28.570Z,993.03
2023-03-15T12:28:28.555Z,993.08
2023-03-15T12:29:29.540Z,993.10
2023-03-15T12:30:28.663Z,993.01
2023-03-15T12:31:28.551Z,992.99
2023-03-15T12:32:28.570Z,993.06
2023-03-15T12:40:31.528Z,993.13
2023-03-15T12:40:42.229Z,993.09
2023-03-15T12:41:42.137Z,993.21
2023-03-15T12:45:37.567Z,993.16
2023-03-15T12:46:35.067Z,993.30
2023-03-15T12:47:34.050Z,993.34
2023-03-15T12:49:59.962Z,993.22
2023-03-15T12:50:59.967Z,993.29
2023-03-15T12:52:00.442Z,993.22
2023-03-15T12:53:00.353Z,993.28
2023-03-15T12:54:00.081Z,993.33
2023-03-15T12:57:52.017Z,993.32
2023-03-15T12:58:51.929Z,993.40
2023-03-15T12:59:51.968Z,993.32
2023-03-15T13:00:52.015Z,993.41
2023-03-15T13:01:54.637Z,993.37
2023-03-15T13:02:52.330Z,993.40